Latest Coastal Weather Observations for East Sale Airport

IDV60701

Issued at 12:31 am EST Wednesday 22 May 2024 (issued every 10 minutes, with the page automatically refreshed every 10 minutes)

About coastal observations | Map of coastal stations | Coastal observations for VIC | Marine services | Other Formats
Station Details ID: 085314 Name: EAST SALE AIRPORT Lat: -38.10 Lon: 147.14 Height: 5.3 m
Data from the previous 72 hours. | See also: Recent months at East Sale Airport
Date/Time
EST
Wind Sea
Height
m
Swell Vis
km
Cloud Weather Temp
°C
Press
MSL
hPa
Rain since
9am
mm
Dir  Spd
kts
Gust
kts
Height
m
Period
s
Dir
22/12:30am WNW 4 5 - - - - 10 Clear - 4.7 1028.9 0.0
22/12:00am NW 7 8 - - - - 10 - - 5.2 1028.8 0.0
 
Date/Time
EST
Wind Sea
Height
m
Swell Vis
km
Cloud Weather Temp
°C
Press
MSL
hPa
Rain since
9am
mm
Dir  Spd
kts
Gust
kts
Height
m
Period
s
Dir
21/11:30pm NW 6 7 - - - - 10 Partly cloudy - 5.7 1029.0 0.0
21/11:00pm WNW 4 5 - - - - 10 Partly cloudy - 5.6 1029.1 0.0
21/10:30pm WNW 4 5 - - - - 10 Partly cloudy - 6.1 1029.2 0.0
21/10:00pm NNW 5 6 - - - - 10 - - 5.4 1029.2 0.0
21/09:30pm NW 6 6 - - - - 10 - - 6.6 1029.2 0.0
21/09:00pm NW 5 6 - - - - 10 - - 6.0 1029.1 0.0
21/08:30pm WNW 6 7 - - - - 10 - - 7.2 1029.1 0.0
21/08:00pm WNW 5 5 - - - - 10 - - 8.3 1029.1 0.0
21/07:30pm WSW 1 3 - - - - 10 - - 7.4 1029.2 0.0
21/07:00pm SSW 1 4 - - - - 10 - - 8.6 1029.1 0.0
21/06:30pm S 1 3 - - - - 10 - - 8.3 1028.8 0.0
21/06:00pm S 2 3 - - - - 10 - - 9.0 1028.6 0.0
21/05:30pm S 3 3 - - - - 10 Mostly clear - 10.2 1028.3 0.0
21/05:00pm S 4 5 - - - - 10 - - 11.3 1028.2 0.0
21/04:30pm SSE 6 7 - - - - 10 Mostly clear - 12.2 1028.5 0.0
21/04:00pm SSE 8 10 - - - - 10 Partly cloudy - 14.1 1028.4 0.0
21/03:30pm S 4 6 - - - - 10 Mostly clear - 15.6 1028.4 0.0
21/03:00pm WNW 3 6 - - - - 10 Mostly cloudy - 17.1 1028.3 0.0
21/02:30pm SW 5 7 - - - - 10 Mostly clear - 15.7 1028.3 0.0
21/02:00pm WSW 5 7 - - - - 10 Mostly clear - 16.0 1028.2 0.0
21/01:30pm WSW 3 7 - - - - 10 Mostly clear - 16.5 1028.4 0.0
21/01:00pm SW 6 9 - - - - 10 Mostly clear - 16.5 1028.6 0.0
21/12:30pm WSW 6 11 - - - - 10 Mostly clear - 16.1 1029.0 0.0
21/12:00pm W 7 9 - - - - 10 Mostly clear - 15.5 1029.4 0.0
21/11:30am WSW 7 9 - - - - 10 Mostly clear - 14.9 1029.6 0.0
21/11:00am WSW 7 10 - - - - 10 Mostly clear - 14.0 1030.0 0.0
21/10:30am W 4 8 - - - - 10 Cloudy - 13.2 1030.1 0.0
21/10:00am NW 5 7 - - - - 10 Cloudy - 12.2 1030.0 0.0
21/09:30am WNW 9 11 - - - - 10 Cloudy - 10.1 1029.9 0.0
21/09:00am NW 9 11 - - - - 10 Mostly cloudy - 9.8 1029.9 0.0
21/08:30am NNW 5 6 - - - - 10 Mostly clear - 8.5 1030.0 0.0
21/08:00am NW 6 7 - - - - 10 Cloudy - 8.1 1029.7 0.0
21/07:30am NNW 6 8 - - - - 10 Cloudy - 7.5 1029.5 0.0
21/07:00am NNW 6 7 - - - - 10 Cloudy - 7.2 1029.3 0.0
21/06:30am N 5 7 - - - - 10 Cloudy - 6.5 1029.3 0.0
21/06:00am N 6 7 - - - - 10 Cloudy - 6.4 1029.1 0.0
21/05:30am WNW 4 7 - - - - 10 Cloudy - 7.4 1028.8 0.0
21/05:00am WNW 7 9 - - - - 10 Partly cloudy - 8.2 1028.6 0.0
21/04:30am NW 6 7 - - - - 10 Cloudy - 6.8 1028.7 0.0
21/04:00am WNW 6 8 - - - - 10 Partly cloudy - 6.7 1028.6 0.0
21/03:30am NW 7 8 - - - - 10 Partly cloudy - 5.7 1028.7 0.0
21/03:00am NW 7 7 - - - - 10 Mostly clear - 6.1 1029.0 0.0
21/02:30am NW 6 7 - - - - 10 Partly cloudy - 5.9 1029.1 0.0
21/02:00am NW 6 7 - - - - 10 Cloudy - 6.3 1029.1 0.0
21/01:30am NW 5 7 - - - - 10 Cloudy - 5.9 1029.1 0.0
21/01:00am WNW 5 7 - - - - 10 Partly cloudy - 6.5 1029.1 0.0
21/12:30am NW 7 8 - - - - 10 Partly cloudy - 6.4 1029.1 0.0
21/12:00am NW 6 6 - - - - 10 Mostly clear - 5.8 1029.2 0.0
 
Date/Time
EST
Wind Sea
Height
m
Swell Vis
km
Cloud Weather Temp
°C
Press
MSL
hPa
Rain since
9am
mm
Dir  Spd
kts
Gust
kts
Height
m
Period
s
Dir
20/11:30pm NW 4 4 - - - - 10 - - 6.0 1029.3 0.0
20/11:00pm NW 5 6 - - - - 10 - - 6.2 1029.4 0.0
20/10:30pm NW 5 6 - - - - 10 - - 6.5 1029.4 0.0
20/10:00pm NW 6 8 - - - - 10 - - 7.9 1029.4 0.0
20/09:30pm NW 5 6 - - - - 10 - - 7.7 1029.3 0.0
20/09:00pm NW 5 7 - - - - 10 - - 8.4 1029.0 0.0
20/08:30pm NW 5 5 - - - - 10 - - 9.7 1028.8 0.0
20/08:00pm WNW 5 6 - - - - 10 Mostly clear - 8.5 1028.7 0.0
20/07:30pm NNW 4 5 - - - - 10 Partly cloudy - 9.5 1028.5 0.0
20/07:00pm SSW 2 4 - - - - 10 Partly cloudy - 9.7 1028.3 0.0
20/06:30pm S 3 4 - - - - 10 Mostly clear - 10.5 1028.1 0.0
20/06:00pm S 4 4 - - - - 10 Partly cloudy - 10.9 1027.8 0.0
20/05:30pm CALM 0 0 - - - - 10 Mostly clear - 12.9 1027.5 0.0
20/05:00pm S 3 6 - - - - 10 Mostly clear - 14.1 1027.1 0.0
20/04:30pm WNW 5 6 - - - - 10 Mostly clear - 15.1 1026.8 0.0
20/04:00pm NNW 1 5 - - - - 10 - - 16.1 1026.6 0.0
20/03:30pm WSW 2 5 - - - - 10 Mostly clear - 15.7 1026.3 0.0
20/03:00pm E 3 5 - - - - 10 Partly cloudy - 16.2 1026.2 0.0
20/02:30pm W 5 7 - - - - 10 Partly cloudy - 15.8 1026.3 0.0
20/02:00pm WSW 4 6 - - - - 10 Partly cloudy - 16.4 1026.3 0.0
20/01:30pm W 6 9 - - - - 10 Partly cloudy - 16.1 1026.2 0.0
20/01:00pm WNW 6 9 - - - - 10 Partly cloudy - 15.3 1026.4 0.0
20/12:30pm WNW 7 12 - - - - 10 Partly cloudy - 15.3 1026.7 0.0
20/12:00pm W 7 10 - - - - 10 Partly cloudy - 14.4 1026.8 0.0
20/11:30am W 9 12 - - - - 10 Partly cloudy - 14.0 1026.9 0.0
20/11:00am W 9 14 - - - - 10 Partly cloudy - 13.6 1027.2 0.0
20/10:30am WNW 9 12 - - - - 10 Mostly clear - 12.9 1027.0 0.0
20/10:00am WNW 10 13 - - - - 10 Mostly clear - 11.4 1026.8 0.0
20/09:48am W 10 14 - - - - 10 Partly cloudy Mist 11.2 1026.7 0.0
20/09:30am W 9 12 - - - - 9 Partly cloudy Mist 10.7 1026.6 0.0
20/09:25am W 9 12 - - - - 2 Partly cloudy Mist 10.5 1026.5 0.0
20/09:00am W 9 12 - - - - 2 Cloudy Fog 9.8 1026.4 0.2
20/08:31am W 7 10 - - - - 1 Cloudy - 9.2 1026.2 0.2
20/08:30am WNW 7 10 - - - - 0.9 Cloudy - 9.2 1026.2 0.2
20/08:00am NW 6 8 - - - - 0.1 Cloudy - 8.3 1025.7 0.2
20/07:48am WNW 6 8 - - - - 0.1 Cloudy Fog 8.5 1025.7 0.2
20/07:30am WNW 7 9 - - - - 0.2 Cloudy - 9.0 1025.5 0.2
20/07:16am WNW 7 9 - - - - 0.3 Cloudy - 9.0 1025.1 0.2
20/07:09am WNW 7 9 - - - - 0.9 Cloudy - 9.0 1025.1 0.2
20/07:00am WNW 7 9 - - - - 2 Partly cloudy - 9.0 1025.1 0.0
20/06:55am WNW 7 9 - - - - 4 Partly cloudy - 9.0 1025.1 0.0
20/06:52am WNW 7 9 - - - - 6 Partly cloudy - 8.8 1025.1 0.0
20/06:30am WNW 7 8 - - - - 10 - - 8.6 1024.6 0.0
20/06:00am WNW 7 9 - - - - 10 - - 8.9 1024.3 0.0
20/05:30am WNW 9 11 - - - - 10 - - 9.8 1024.1 0.0
20/05:19am W 10 13 - - - - 10 Partly cloudy - 9.8 1024.0 0.0
20/05:00am W 7 11 - - - - 10 Partly cloudy - 9.8 1023.8 0.0
20/04:47am W 9 14 - - - - 10 Partly cloudy - 10.0 1023.8 0.0
20/04:30am W 8 10 - - - - 10 - - 9.9 1023.4 0.0
20/04:00am W 8 11 - - - - 10 Partly cloudy - 10.0 1023.1 0.0
20/03:30am W 8 11 - - - - 10 Partly cloudy - 10.2 1023.1 0.0
20/03:00am WNW 9 11 - - - - 10 Cloudy - 10.4 1023.2 0.0
20/02:30am W 9 12 - - - - 10 Partly cloudy - 10.8 1023.2 0.0
20/02:00am W 9 11 - - - - 10 Cloudy - 10.8 1023.0 0.0
20/01:34am W 9 14 - - - - 10 Partly cloudy - 10.5 1022.9 0.0
20/01:30am W 9 12 - - - - 10 Partly cloudy - 10.5 1022.9 0.0
20/01:06am WSW 8 11 - - - - 6 Partly cloudy - 10.4 1022.9 0.0
20/01:00am WSW 8 10 - - - - 10 Partly cloudy - 10.5 1023.0 0.0
20/12:30am WSW 7 9 - - - - 10 Cloudy - 10.2 1022.9 0.0
20/12:00am WSW 6 8 - - - - 10 Mostly cloudy - 9.9 1023.0 0.0
 
Date/Time
EST
Wind Sea
Height
m
Swell Vis
km
Cloud Weather Temp
°C
Press
MSL
hPa
Rain since
9am
mm
Dir  Spd
kts
Gust
kts
Height
m
Period
s
Dir
19/11:30pm W 8 10 - - - - 10 Partly cloudy - 10.3 1022.9 0.0
19/11:00pm W 7 8 - - - - 10 Cloudy - 10.3 1023.0 0.0
19/10:30pm WNW 7 10 - - - - 10 Partly cloudy - 10.1 1022.9 0.0
19/10:00pm WNW 5 8 - - - - 10 Partly cloudy - 9.9 1022.9 0.0
19/09:30pm W 7 10 - - - - 10 Partly cloudy - 10.4 1023.0 0.0
19/09:00pm W 9 11 - - - - 10 Mostly clear - 10.8 1022.9 0.0
19/08:30pm WNW 9 12 - - - - 10 Partly cloudy - 11.1 1022.8 0.0
19/08:00pm WNW 8 11 - - - - 10 Partly cloudy - 11.4 1022.6 0.0
19/07:30pm W 9 12 - - - - 10 Partly cloudy - 11.9 1022.4 0.0
19/07:00pm W 11 16 - - - - 10 Partly cloudy - 12.1 1022.1 0.0
19/06:30pm W 9 14 - - - - 10 Partly cloudy - 12.4 1021.6 0.0
19/06:00pm W 11 15 - - - - 10 Cloudy - 12.7 1021.2 0.0
19/05:30pm W 8 13 - - - - 10 Partly cloudy - 12.8 1020.7 0.0
19/05:00pm W 11 19 - - - - 10 Partly cloudy - 12.7 1020.4 0.0
19/04:38pm W 11 15 - - - - 10 Partly cloudy - 12.4 1020.2 0.0
19/04:30pm WSW 12 19 - - - - 8 Partly cloudy - 12.2 1020.2 0.0
19/04:20pm W 16 24 - - - - 6 Partly cloudy - 12.7 1020.2 0.0
19/04:00pm W 11 16 - - - - 10 Partly cloudy - 13.7 1020.2 0.0
19/03:30pm W 17 25 - - - - 10 Partly cloudy - 13.5 1019.9 0.0
19/03:25pm W 15 25 - - - - 10 Partly cloudy - 13.4 1020.0 0.0
19/03:00pm W 16 22 - - - - 10 Cloudy - 13.8 1019.8 0.0
19/02:30pm W 13 19 - - - - 10 Partly cloudy - 14.6 1019.8 0.0
19/02:00pm W 15 20 - - - - 10 Partly cloudy - 14.9 1019.8 0.0
19/01:30pm W 19 25 - - - - 10 Partly cloudy - 14.2 1019.8 0.0
19/01:01pm W 17 28 - - - - 10 Partly cloudy - 14.9 1019.8 0.0
19/01:00pm W 17 24 - - - - 10 Partly cloudy - 15.2 1019.8 0.0
19/12:30pm W 16 23 - - - - 10 Partly cloudy - 15.0 1020.2 0.0
19/12:11pm W 15 25 - - - - 10 Partly cloudy - 14.9 1020.5 0.0
19/12:00pm W 17 25 - - - - 10 - - 15.0 1020.5 0.0
19/11:30am W 17 24 - - - - 10 Partly cloudy - 14.7 1021.0 0.0
19/11:00am WNW 14 22 - - - - 10 Partly cloudy - 14.0 1021.4 0.0
19/10:30am WNW 11 15 - - - - 10 Partly cloudy - 13.5 1021.9 0.0
19/10:00am WNW 8 10 - - - - 10 Partly cloudy - 11.2 1022.5 0.0
19/09:30am NW 9 11 - - - - 10 Partly cloudy - 9.6 1022.6 0.0
19/09:00am NW 9 11 - - - - 10 Cloudy - 8.6 1023.0 0.0
19/08:30am NW 7 9 - - - - 10 Cloudy - 8.0 1023.3 0.0
19/08:00am NW 7 9 - - - - 10 Cloudy - 7.2 1023.2 0.0
19/07:30am WNW 8 11 - - - - 10 Cloudy - 6.5 1023.2 0.0
19/07:00am WNW 7 9 - - - - 10 Partly cloudy - 5.1 1023.3 0.0
19/06:30am NW 7 8 - - - - 10 Partly cloudy - 4.8 1023.4 0.0
19/06:00am NW 7 9 - - - - 10 Cloudy - 4.7 1023.5 0.0
19/05:30am NW 7 9 - - - - 10 Partly cloudy - 4.4 1023.7 0.0
19/05:00am NW 8 9 - - - - 10 Partly cloudy - 4.9 1023.7 0.0
19/04:30am NW 6 7 - - - - 10 Cloudy - 4.9 1024.0 0.0
19/04:27am NW 6 7 - - - - 10 Cloudy - 4.9 1024.0 0.0
19/04:08am NW 4 5 - - - - 6 Partly cloudy - 4.4 1024.2 0.0
19/04:00am WNW 4 5 - - - - 10 Partly cloudy - 4.6 1024.2 0.0
19/03:30am WSW 4 5 - - - - 10 Partly cloudy - 4.5 1024.5 0.0
19/03:00am NW 4 5 - - - - 10 Cloudy - 4.4 1024.8 0.0
19/02:30am NNW 8 10 - - - - 10 - - 4.2 1025.1 0.0
19/02:00am NW 9 11 - - - - 10 - - 4.8 1025.5 0.0
19/01:30am NW 8 9 - - - - 10 - - 3.8 1025.8 0.0
19/01:00am NW 7 7 - - - - 10 - - 3.6 1026.4 0.0
19/12:45am NW 6 6 - - - - 10 - - 3.3 1026.7 0.0

Other formats

Comma delimited format used in spreadsheet applications
http://www.bom.gov.au/fwo/IDV60701/IDV60701.95907.axf

JavaScript Object Notation format (JSON) in row-major order
http://www.bom.gov.au/fwo/IDV60701/IDV60701.95907.json

Data quality

Most of these data are generated automatically and are frequently updated. Quality checks on data are not normally performed. It is possible for incorrect values to appear. Refer to information at About Latest Weather Observations and please check the disclaimer before using these data.